Time;durP1;ratioP1;P1;durP2;ratioP2;P2;SDS_P1;SDS_P2;PMS_P1;PMS_P2;Temp;Humidity;BMP_temperature;BMP_pressure;BME280_temperature;BME280_humidity;BME280_pressure;Samples;Min_cycle;Max_cycle;Signal;HPM_P1;HPM_P2
2022/04/07 00:00:16;;;;;;;7.10;6.45;;;;;;;;;;2085270;28;20182;-58
2022/04/07 00:01:16;;;;;;;7.72;7.05;;;;;;;;;;2087816;28;20263;-52
2022/04/07 00:02:17;;;;;;;7.88;7.28;;;;;;;;;;2084086;28;20218;-54
2022/04/07 00:03:17;;;;;;;8.73;7.82;;;;;;;;;;2075721;28;20192;-57
2022/04/07 00:04:17;;;;;;;7.43;6.82;;;;;;;;;;2077122;28;20263;-57
2022/04/07 00:05:17;;;;;;;7.53;6.85;;;;;;;;;;2075175;28;20263;-58
2022/04/07 00:06:18;;;;;;;8.05;7.25;;;;;;;;;;2072599;28;20681;-57
2022/04/07 00:07:18;;;;;;;7.30;6.70;;;;;;;;;;2084352;28;20168;-54
2022/04/07 00:08:18;;;;;;;7.85;7.10;;;;;;;;;;2075057;28;20177;-55
2022/04/07 00:09:18;;;;;;;8.30;7.70;;;;;;;;;;2080134;28;20736;-56
2022/04/07 00:10:20;;;;;;;10.43;8.38;;;;;;;;;;2089022;28;20625;-53
2022/04/07 00:11:21;;;;;;;8.65;7.88;;;;;;;;;;2089615;28;20534;-56
2022/04/07 00:12:22;;;;;;;9.13;8.30;;;;;;;;;;2088413;28;20225;-57
2022/04/07 00:13:22;;;;;;;9.70;8.90;;;;;;;;;;2083526;28;20559;-62
2022/04/07 00:14:22;;;;;;;9.20;8.40;;;;;;;;;;2088904;28;20171;-58
2022/04/07 00:15:23;;;;;;;10.00;9.20;;;;;;;;;;2088709;28;20180;-55
2022/04/07 00:16:23;;;;;;;12.55;9.05;;;;;;;;;;2082536;28;20194;-54
2022/04/07 00:17:23;;;;;;;9.45;8.65;;;;;;;;;;2082227;28;20173;-54
2022/04/07 00:18:23;;;;;;;9.88;9.07;;;;;;;;;;2081801;28;20180;-55
2022/04/07 00:19:24;;;;;;;10.07;9.18;;;;;;;;;;2082316;28;20172;-56
2022/04/07 00:20:24;;;;;;;10.32;9.27;;;;;;;;;;2087704;28;20175;-55
2022/04/07 00:21:25;;;;;;;10.25;9.45;;;;;;;;;;2082664;28;20168;-54
2022/04/07 00:22:25;;;;;;;11.07;9.10;;;;;;;;;;2089959;28;20188;-56
2022/04/07 00:23:25;;;;;;;10.95;9.90;;;;;;;;;;2089331;28;20171;-55
2022/04/07 00:24:26;;;;;;;10.18;9.27;;;;;;;;;;2079826;28;20191;-56
2022/04/07 00:25:26;;;;;;;10.13;8.93;;;;;;;;;;2074195;28;20272;-57
2022/04/07 00:26:27;;;;;;;10.45;9.65;;;;;;;;;;2081179;28;20200;-59
2022/04/07 00:27:27;;;;;;;9.95;9.15;;;;;;;;;;2083555;28;20224;-57
2022/04/07 00:28:27;;;;;;;10.88;9.88;;;;;;;;;;2080490;28;20200;-59
2022/04/07 00:29:27;;;;;;;10.85;9.85;;;;;;;;;;2076377;28;20218;-56
2022/04/07 00:30:28;;;;;;;10.15;9.45;;;;;;;;;;2088452;28;20274;-56
2022/04/07 00:31:31;;;;;;;10.10;9.20;;;;;;;;;;2084572;28;20222;-54
2022/04/07 00:32:31;;;;;;;10.40;9.40;;;;;;;;;;2081482;28;20172;-59
2022/04/07 00:33:32;;;;;;;9.82;9.02;;;;;;;;;;2088931;28;20171;-55
2022/04/07 00:34:32;;;;;;;10.13;9.25;;;;;;;;;;2087772;28;20925;-59
2022/04/07 00:35:32;;;;;;;10.45;9.57;;;;;;;;;;2084697;28;20176;-55
2022/04/07 00:36:32;;;;;;;10.52;9.48;;;;;;;;;;2088600;28;20731;-58
2022/04/07 00:37:33;;;;;;;9.50;8.73;;;;;;;;;;2081260;28;20287;-58
2022/04/07 00:38:33;;;;;;;9.00;8.30;;;;;;;;;;2081629;28;20203;-57
2022/04/07 00:39:34;;;;;;;10.05;9.25;;;;;;;;;;2081839;28;20196;-53
2022/04/07 00:40:34;;;;;;;9.18;8.45;;;;;;;;;;2089066;28;20483;-53
2022/04/07 00:41:37;;;;;;;9.70;8.90;;;;;;;;;;2089413;28;20175;-56
2022/04/07 00:42:45;;;;;;;9.35;8.65;;;;;;;;;;2088975;28;20184;-54
2022/04/07 00:43:49;;;;;;;9.90;9.20;;;;;;;;;;2086160;28;20190;-56
2022/04/07 00:44:49;;;;;;;9.70;8.98;;;;;;;;;;2086775;28;20198;-56
2022/04/07 00:45:49;;;;;;;10.07;9.07;;;;;;;;;;2079262;28;20791;-54
2022/04/07 00:46:49;;;;;;;10.27;8.75;;;;;;;;;;2079356;28;20688;-57
2022/04/07 00:47:50;;;;;;;9.07;8.40;;;;;;;;;;2078477;28;20179;-56
2022/04/07 00:48:51;;;;;;;8.48;7.85;;;;;;;;;;2081378;28;20253;-57
2022/04/07 00:49:52;;;;;;;8.98;8.38;;;;;;;;;;2088684;28;20676;-59
2022/04/07 00:50:56;;;;;;;9.23;8.43;;;;;;;;;;2087077;28;20675;-57
2022/04/07 00:51:56;;;;;;;9.32;8.52;;;;;;;;;;2088989;28;20560;-55
2022/04/07 00:52:58;;;;;;;9.48;8.77;;;;;;;;;;2088129;28;20173;-56
2022/04/07 00:53:58;;;;;;;9.73;8.88;;;;;;;;;;2084809;28;20190;-55
2022/04/07 00:54:59;;;;;;;9.73;8.88;;;;;;;;;;2066159;28;20169;-56
2022/04/07 00:56:01;;;;;;;9.48;8.80;;;;;;;;;;2070719;28;20197;-57
2022/04/07 00:57:01;;;;;;;9.60;8.82;;;;;;;;;;2084674;28;20180;-58
2022/04/07 00:58:02;;;;;;;9.25;8.55;;;;;;;;;;2088451;28;20160;-56
2022/04/07 00:59:04;;;;;;;10.10;9.30;;;;;;;;;;2079394;28;20202;-56
2022/04/07 01:00:09;;;;;;;10.27;9.40;;;;;;;;;;2077783;28;20590;-58
2022/04/07 01:01:09;;;;;;;8.57;7.97;;;;;;;;;;2086163;28;20179;-55
2022/04/07 01:02:10;;;;;;;9.40;8.63;;;;;;;;;;2084654;28;20180;-56
2022/04/07 01:03:10;;;;;;;9.23;8.43;;;;;;;;;;2086197;28;20175;-59
2022/04/07 01:04:10;;;;;;;9.20;8.50;;;;;;;;;;2083908;28;20639;-58
2022/04/07 01:05:10;;;;;;;9.48;8.75;;;;;;;;;;2088513;28;20183;-57
2022/04/07 01:06:11;;;;;;;9.90;9.20;;;;;;;;;;2083882;28;20177;-57
2022/04/07 01:07:12;;;;;;;9.88;9.10;;;;;;;;;;2072467;28;20708;-58
2022/04/07 01:08:12;;;;;;;9.23;8.43;;;;;;;;;;2080433;28;20207;-52
2022/04/07 01:09:13;;;;;;;9.07;8.38;;;;;;;;;;2073734;28;20184;-58
2022/04/07 01:10:13;;;;;;;9.82;8.95;;;;;;;;;;2064272;28;20216;-57
2022/04/07 01:11:14;;;;;;;9.25;8.45;;;;;;;;;;2079697;28;20175;-56
2022/04/07 01:12:14;;;;;;;10.32;9.43;;;;;;;;;;2077495;28;20176;-57
2022/04/07 01:13:15;;;;;;;9.90;9.07;;;;;;;;;;2074420;28;20696;-54
2022/04/07 01:14:15;;;;;;;9.57;8.88;;;;;;;;;;2071435;28;20239;-56
2022/04/07 01:15:16;;;;;;;10.02;9.13;;;;;;;;;;2074502;28;20177;-55
2022/04/07 01:16:17;;;;;;;9.70;8.95;;;;;;;;;;2086262;28;20205;-56
2022/04/07 01:17:19;;;;;;;9.32;8.57;;;;;;;;;;2083790;28;20184;-57
2022/04/07 01:18:20;;;;;;;10.68;9.88;;;;;;;;;;2087524;28;20203;-57
2022/04/07 01:19:20;;;;;;;9.65;8.95;;;;;;;;;;2088384;28;20197;-60
2022/04/07 01:20:20;;;;;;;9.73;9.02;;;;;;;;;;2086253;28;20171;-59
2022/04/07 01:21:21;;;;;;;9.93;9.23;;;;;;;;;;2088613;28;20180;-56
2022/04/07 01:22:22;;;;;;;10.52;9.60;;;;;;;;;;2089409;28;20168;-59
2022/04/07 01:23:22;;;;;;;10.45;9.57;;;;;;;;;;2083512;28;20184;-61
2022/04/07 01:24:28;;;;;;;10.05;9.35;;;;;;;;;;2075657;28;20215;-57
2022/04/07 01:25:29;;;;;;;10.80;9.90;;;;;;;;;;2078022;28;20172;-60
2022/04/07 01:26:39;;;;;;;9.82;9.13;;;;;;;;;;2085148;28;20194;-57
2022/04/07 01:27:40;;;;;;;10.05;9.30;;;;;;;;;;2088322;28;20171;-57
2022/04/07 01:28:46;;;;;;;10.38;9.48;;;;;;;;;;2088057;28;20230;-57
2022/04/07 01:29:46;;;;;;;9.45;8.65;;;;;;;;;;2083370;28;20279;-59
2022/04/07 01:30:46;;;;;;;10.32;8.70;;;;;;;;;;2088670;28;20171;-60
2022/04/07 01:31:46;;;;;;;8.98;8.27;;;;;;;;;;2084293;28;20307;-57
2022/04/07 01:32:52;;;;;;;10.95;10.15;;;;;;;;;;2089898;28;20513;-60
2022/04/07 01:33:52;;;;;;;9.85;9.13;;;;;;;;;;2090045;28;20168;-59
2022/04/07 01:34:53;;;;;;;9.60;8.88;;;;;;;;;;2075772;28;20169;-57
2022/04/07 01:35:53;;;;;;;10.75;9.88;;;;;;;;;;2078815;28;20668;-60
2022/04/07 01:36:53;;;;;;;9.63;8.93;;;;;;;;;;2087081;28;20176;-57
2022/04/07 01:37:55;;;;;;;10.23;9.43;;;;;;;;;;2081683;28;20157;-58
2022/04/07 01:38:56;;;;;;;9.73;8.90;;;;;;;;;;2075001;28;20208;-60
2022/04/07 01:39:57;;;;;;;9.98;9.18;;;;;;;;;;2070479;28;20201;-51
2022/04/07 01:40:57;;;;;;;10.13;9.25;;;;;;;;;;2070856;28;20214;-58
2022/04/07 01:41:58;;;;;;;8.70;8.10;;;;;;;;;;2078225;28;20593;-55
2022/04/07 01:42:59;;;;;;;9.07;8.27;;;;;;;;;;2076237;28;20195;-61
2022/04/07 01:43:59;;;;;;;9.23;8.30;;;;;;;;;;2086501;28;20173;-58
2022/04/07 01:45:01;;;;;;;8.85;8.25;;;;;;;;;;2081810;28;20164;-58
2022/04/07 01:46:02;;;;;;;10.60;9.75;;;;;;;;;;2084988;28;20547;-57
2022/04/07 01:47:02;;;;;;;9.10;8.30;;;;;;;;;;2089820;28;20171;-57
2022/04/07 01:48:03;;;;;;;9.40;8.63;;;;;;;;;;2077037;28;20232;-59
2022/04/07 01:49:04;;;;;;;8.95;8.27;;;;;;;;;;2075129;28;20278;-57
2022/04/07 01:50:06;;;;;;;9.30;8.70;;;;;;;;;;2087362;28;20206;-54
2022/04/07 01:51:08;;;;;;;10.15;9.38;;;;;;;;;;2078473;28;20398;-58
2022/04/07 01:52:08;;;;;;;9.45;8.73;;;;;;;;;;2080682;28;20255;-56
2022/04/07 01:53:09;;;;;;;9.65;8.75;;;;;;;;;;2075517;28;20189;-60
2022/04/07 01:54:11;;;;;;;9.80;8.90;;;;;;;;;;2076249;28;20191;-57
2022/04/07 01:55:15;;;;;;;10.40;9.48;;;;;;;;;;2088294;28;20172;-58
2022/04/07 01:56:16;;;;;;;9.30;8.57;;;;;;;;;;2086160;28;20211;-55
2022/04/07 01:57:20;;;;;;;9.77;9.02;;;;;;;;;;2088354;28;20186;-59
2022/04/07 01:58:20;;;;;;;8.65;7.85;;;;;;;;;;2082888;28;20187;-57
2022/04/07 01:59:21;;;;;;;9.00;8.40;;;;;;;;;;2088605;28;20184;-55
2022/04/07 02:00:22;;;;;;;8.70;7.90;;;;;;;;;;2090492;28;20207;-58
2022/04/07 02:01:22;;;;;;;8.93;8.30;;;;;;;;;;2080949;28;20559;-56
2022/04/07 02:02:22;;;;;;;8.93;8.27;;;;;;;;;;2068666;28;20201;-58
2022/04/07 02:03:23;;;;;;;8.43;7.63;;;;;;;;;;2082759;28;20195;-59
2022/04/07 02:04:23;;;;;;;8.73;8.13;;;;;;;;;;2084888;28;20183;-58
2022/04/07 02:05:23;;;;;;;8.32;7.65;;;;;;;;;;2074716;28;20185;-57
2022/04/07 02:06:25;;;;;;;7.80;7.10;;;;;;;;;;2075657;28;20210;-60
2022/04/07 02:07:29;;;;;;;7.65;7.05;;;;;;;;;;2089998;28;20167;-56
2022/04/07 02:08:29;;;;;;;8.18;7.53;;;;;;;;;;2087205;28;20261;-55
2022/04/07 02:09:33;;;;;;;7.47;6.97;;;;;;;;;;2085900;28;20672;-61
2022/04/07 02:10:33;;;;;;;6.68;6.20;;;;;;;;;;2091048;28;20176;-59
2022/04/07 02:11:35;;;;;;;6.93;6.43;;;;;;;;;;2076415;28;20181;-58
2022/04/07 02:12:36;;;;;;;6.22;5.82;;;;;;;;;;2076252;28;20169;-56
2022/04/07 02:13:38;;;;;;;6.57;6.05;;;;;;;;;;2071042;28;20165;-57
2022/04/07 02:14:39;;;;;;;5.95;5.55;;;;;;;;;;2081406;28;20243;-58
2022/04/07 02:15:39;;;;;;;6.18;5.72;;;;;;;;;;2082899;28;20195;-60
2022/04/07 02:16:39;;;;;;;6.55;6.15;;;;;;;;;;2076082;28;20165;-58
2022/04/07 02:17:39;;;;;;;5.80;5.47;;;;;;;;;;2090390;28;20168;-58
2022/04/07 02:18:40;;;;;;;6.38;5.88;;;;;;;;;;2090008;28;20206;-59
2022/04/07 02:19:40;;;;;;;5.60;5.10;;;;;;;;;;2083056;28;20164;-60
2022/04/07 02:20:40;;;;;;;5.55;5.10;;;;;;;;;;2086169;28;20191;-59
2022/04/07 02:21:41;;;;;;;6.05;5.38;;;;;;;;;;2090462;28;20194;-58
2022/04/07 02:22:41;;;;;;;5.30;4.90;;;;;;;;;;2088546;28;20226;-59
2022/04/07 02:23:44;;;;;;;5.00;4.60;;;;;;;;;;2086105;28;20172;-58
2022/04/07 02:24:45;;;;;;;5.35;4.95;;;;;;;;;;2090520;28;20205;-55
2022/04/07 02:25:45;;;;;;;3.45;3.25;;;;;;;;;;2091000;28;20180;-59
2022/04/07 02:26:45;;;;;;;6.22;4.32;;;;;;;;;;2088444;28;20184;-57
2022/04/07 02:27:45;;;;;;;4.57;4.13;;;;;;;;;;2082122;28;20196;-60
2022/04/07 02:28:46;;;;;;;4.47;4.15;;;;;;;;;;2080754;28;20267;-57
2022/04/07 02:29:46;;;;;;;4.63;4.32;;;;;;;;;;2085478;28;20393;-63
2022/04/07 02:30:47;;;;;;;4.35;3.92;;;;;;;;;;2090904;28;20886;-60
2022/04/07 02:31:47;;;;;;;4.53;4.13;;;;;;;;;;2089988;28;20367;-56
2022/04/07 02:32:48;;;;;;;5.13;4.40;;;;;;;;;;2088804;28;20206;-59
2022/04/07 02:33:48;;;;;;;4.57;3.92;;;;;;;;;;2082620;28;20605;-59
2022/04/07 02:34:49;;;;;;;5.30;4.70;;;;;;;;;;2083921;28;20173;-56
2022/04/07 02:35:50;;;;;;;3.78;3.47;;;;;;;;;;2088261;28;20581;-60
2022/04/07 02:36:50;;;;;;;3.10;2.90;;;;;;;;;;2090183;28;20683;-58
2022/04/07 02:37:51;;;;;;;3.53;3.30;;;;;;;;;;2090394;28;20164;-59
2022/04/07 02:38:51;;;;;;;5.30;3.50;;;;;;;;;;2090718;28;20317;-56
2022/04/07 02:39:52;;;;;;;3.90;3.55;;;;;;;;;;2085807;28;20188;-58
2022/04/07 02:40:53;;;;;;;4.38;3.97;;;;;;;;;;2081858;28;20176;-59
2022/04/07 02:41:53;;;;;;;4.38;4.05;;;;;;;;;;2081900;28;20200;-60
2022/04/07 02:42:54;;;;;;;4.25;3.92;;;;;;;;;;2083083;28;20160;-56
2022/04/07 02:43:55;;;;;;;4.55;4.15;;;;;;;;;;2074128;28;20168;-55
2022/04/07 02:44:55;;;;;;;3.80;3.50;;;;;;;;;;2082435;28;20677;-57
2022/04/07 02:45:56;;;;;;;4.78;4.38;;;;;;;;;;2088503;28;20187;-57
2022/04/07 02:46:56;;;;;;;5.45;3.83;;;;;;;;;;2085617;28;20181;-58
2022/04/07 02:47:56;;;;;;;4.55;4.15;;;;;;;;;;2085988;28;20168;-56
2022/04/07 02:48:56;;;;;;;5.07;4.78;;;;;;;;;;2084500;28;20934;-58
2022/04/07 02:49:57;;;;;;;4.75;4.28;;;;;;;;;;2088057;28;20706;-59
2022/04/07 02:50:57;;;;;;;4.85;4.07;;;;;;;;;;2081786;28;20641;-56
2022/04/07 02:51:57;;;;;;;4.80;4.38;;;;;;;;;;2081177;28;20259;-57
2022/04/07 02:52:58;;;;;;;5.00;4.65;;;;;;;;;;2089983;28;20798;-55
2022/04/07 02:53:58;;;;;;;4.65;4.28;;;;;;;;;;2086436;28;20703;-58
2022/04/07 02:54:59;;;;;;;5.65;5.25;;;;;;;;;;2082019;28;20180;-56
2022/04/07 02:55:59;;;;;;;5.25;4.95;;;;;;;;;;2084803;28;20532;-53
2022/04/07 02:56:59;;;;;;;7.38;5.50;;;;;;;;;;2082410;28;20175;-56
2022/04/07 02:57:59;;;;;;;6.13;5.68;;;;;;;;;;2083672;28;20194;-57
2022/04/07 02:59:00;;;;;;;8.57;5.88;;;;;;;;;;2085525;28;20674;-57
2022/04/07 03:00:00;;;;;;;6.90;5.97;;;;;;;;;;2092426;28;20254;-58
2022/04/07 03:01:00;;;;;;;7.15;6.45;;;;;;;;;;2082801;28;20176;-60
2022/04/07 03:02:01;;;;;;;7.13;6.38;;;;;;;;;;2088096;28;20199;-57
2022/04/07 03:03:02;;;;;;;7.43;6.18;;;;;;;;;;2086650;28;20222;-59
2022/04/07 03:04:02;;;;;;;6.85;6.18;;;;;;;;;;2084082;28;20241;-57
2022/04/07 03:05:02;;;;;;;8.02;6.00;;;;;;;;;;2089962;28;20176;-60
2022/04/07 03:06:03;;;;;;;7.63;6.85;;;;;;;;;;2089420;28;20228;-59
2022/04/07 03:07:03;;;;;;;7.10;5.75;;;;;;;;;;2082631;28;20282;-58
2022/04/07 03:08:03;;;;;;;6.30;5.70;;;;;;;;;;2080879;28;20211;-56
2022/04/07 03:09:04;;;;;;;7.05;6.13;;;;;;;;;;2069326;28;20668;-53
2022/04/07 03:10:04;;;;;;;6.60;6.10;;;;;;;;;;2077569;28;20184;-58
2022/04/07 03:11:07;;;;;;;5.93;5.53;;;;;;;;;;2081368;28;20660;-53
2022/04/07 03:12:08;;;;;;;7.43;5.93;;;;;;;;;;2077705;28;20364;-58
2022/04/07 03:13:08;;;;;;;6.40;5.85;;;;;;;;;;2076813;28;20173;-59
2022/04/07 03:14:08;;;;;;;6.75;6.15;;;;;;;;;;2077737;28;20185;-54
2022/04/07 03:15:09;;;;;;;6.45;5.78;;;;;;;;;;2082391;28;20175;-59
2022/04/07 03:16:09;;;;;;;6.43;5.90;;;;;;;;;;2084060;28;20179;-58
2022/04/07 03:17:10;;;;;;;8.77;6.10;;;;;;;;;;2086998;28;20180;-59
2022/04/07 03:18:11;;;;;;;6.20;5.57;;;;;;;;;;2090161;28;20338;-58
2022/04/07 03:19:11;;;;;;;8.27;7.47;;;;;;;;;;2093459;28;20383;-60
2022/04/07 03:20:11;;;;;;;13.48;7.05;;;;;;;;;;2088777;28;20192;-58
2022/04/07 03:21:12;;;;;;;7.72;6.05;;;;;;;;;;2085493;28;20188;-57
2022/04/07 03:22:12;;;;;;;9.48;6.72;;;;;;;;;;2088801;28;20172;-58
2022/04/07 03:23:13;;;;;;;8.57;6.40;;;;;;;;;;2089286;28;20183;-55
2022/04/07 03:24:13;;;;;;;10.43;6.88;;;;;;;;;;2092145;28;20221;-60
2022/04/07 03:25:13;;;;;;;7.75;7.00;;;;;;;;;;2081135;28;20251;-56
2022/04/07 03:26:14;;;;;;;6.80;6.20;;;;;;;;;;2076727;28;20808;-57
2022/04/07 03:27:14;;;;;;;7.47;6.88;;;;;;;;;;2080277;28;20165;-56
2022/04/07 03:28:14;;;;;;;7.53;6.88;;;;;;;;;;2082181;28;20561;-55
2022/04/07 03:29:14;;;;;;;7.07;6.22;;;;;;;;;;2090686;28;20170;-56
2022/04/07 03:30:15;;;;;;;6.32;5.55;;;;;;;;;;2090635;28;20172;-58
2022/04/07 03:31:15;;;;;;;7.20;6.50;;;;;;;;;;2085402;28;20188;-60
2022/04/07 03:32:15;;;;;;;7.15;6.45;;;;;;;;;;2083126;28;20182;-56
2022/04/07 03:33:16;;;;;;;9.02;6.10;;;;;;;;;;2080769;28;20731;-59
2022/04/07 03:34:16;;;;;;;10.23;6.88;;;;;;;;;;2076675;28;20208;-58
2022/04/07 03:35:17;;;;;;;7.05;6.55;;;;;;;;;;2085038;28;20241;-58
2022/04/07 03:36:17;;;;;;;6.80;6.20;;;;;;;;;;2085579;28;20182;-56
2022/04/07 03:37:18;;;;;;;12.80;6.38;;;;;;;;;;2085602;28;20172;-57
2022/04/07 03:38:19;;;;;;;7.32;6.63;;;;;;;;;;2082582;28;20267;-55
2022/04/07 03:39:19;;;;;;;7.32;6.63;;;;;;;;;;2076579;28;20169;-56
2022/04/07 03:40:19;;;;;;;7.50;6.75;;;;;;;;;;2088056;28;20263;-57
2022/04/07 03:41:19;;;;;;;7.60;6.47;;;;;;;;;;2084519;28;20179;-55
2022/04/07 03:42:20;;;;;;;7.75;6.00;;;;;;;;;;2075839;28;20211;-57
2022/04/07 03:43:20;;;;;;;6.70;6.10;;;;;;;;;;2076238;28;20293;-54
2022/04/07 03:44:20;;;;;;;7.32;5.97;;;;;;;;;;2087172;28;20227;-58
2022/04/07 03:45:21;;;;;;;6.88;6.28;;;;;;;;;;2092643;28;20203;-59
2022/04/07 03:46:21;;;;;;;8.57;5.20;;;;;;;;;;2086683;28;20702;-55
2022/04/07 03:47:21;;;;;;;7.35;6.53;;;;;;;;;;2089270;28;20176;-56
2022/04/07 03:48:22;;;;;;;7.05;6.50;;;;;;;;;;2088245;28;20189;-58
2022/04/07 03:49:22;;;;;;;5.70;5.22;;;;;;;;;;2090254;28;20227;-58
2022/04/07 03:50:22;;;;;;;7.28;6.53;;;;;;;;;;2079581;28;20183;-60
2022/04/07 03:51:23;;;;;;;6.95;6.25;;;;;;;;;;2085470;28;20172;-56
2022/04/07 03:52:23;;;;;;;6.88;6.38;;;;;;;;;;2086626;28;20183;-61
2022/04/07 03:53:23;;;;;;;6.65;6.10;;;;;;;;;;2087363;28;20202;-58
2022/04/07 03:54:23;;;;;;;6.78;5.75;;;;;;;;;;2086636;28;20168;-62
2022/04/07 03:55:24;;;;;;;6.22;5.50;;;;;;;;;;2083580;28;20184;-56
2022/04/07 03:56:24;;;;;;;7.35;6.13;;;;;;;;;;2083984;28;20260;-58
2022/04/07 03:57:24;;;;;;;7.30;6.05;;;;;;;;;;2094196;28;20211;-58
2022/04/07 03:58:26;;;;;;;6.47;5.63;;;;;;;;;;2092196;28;20163;-59
2022/04/07 03:59:26;;;;;;;6.10;5.60;;;;;;;;;;2092037;28;20168;-59
2022/04/07 04:00:27;;;;;;;6.25;5.68;;;;;;;;;;2090780;28;20190;-58
2022/04/07 04:01:27;;;;;;;5.93;4.93;;;;;;;;;;2088379;28;20190;-59
2022/04/07 04:02:27;;;;;;;6.03;5.53;;;;;;;;;;2090072;28;20180;-59
2022/04/07 04:03:28;;;;;;;6.03;5.53;;;;;;;;;;2092135;28;20594;-58
2022/04/07 04:04:28;;;;;;;6.30;5.70;;;;;;;;;;2083523;28;20180;-59
2022/04/07 04:05:28;;;;;;;6.50;5.68;;;;;;;;;;2085410;28;20191;-61
2022/04/07 04:06:29;;;;;;;6.60;5.50;;;;;;;;;;2088099;28;20207;-56
2022/04/07 04:07:29;;;;;;;5.85;5.32;;;;;;;;;;2092375;28;20210;-59
2022/04/07 04:08:29;;;;;;;6.03;5.40;;;;;;;;;;2084020;28;20563;-54
2022/04/07 04:09:29;;;;;;;5.65;5.15;;;;;;;;;;2092975;28;20207;-57
2022/04/07 04:10:30;;;;;;;5.63;5.18;;;;;;;;;;2085355;28;20179;-59
2022/04/07 04:11:30;;;;;;;6.60;5.95;;;;;;;;;;2086478;28;20172;-57
2022/04/07 04:12:31;;;;;;;5.80;5.30;;;;;;;;;;2082669;28;20271;-58
2022/04/07 04:13:31;;;;;;;8.57;5.22;;;;;;;;;;2073870;28;20536;-58
2022/04/07 04:14:31;;;;;;;5.90;5.40;;;;;;;;;;2080998;28;20653;-59
2022/04/07 04:15:32;;;;;;;6.78;5.97;;;;;;;;;;2085146;28;20179;-57
2022/04/07 04:16:32;;;;;;;6.32;5.63;;;;;;;;;;2081751;28;20186;-58
2022/04/07 04:17:32;;;;;;;6.65;6.05;;;;;;;;;;2085343;28;20551;-58
2022/04/07 04:18:33;;;;;;;7.55;5.47;;;;;;;;;;2082793;28;20664;-59
2022/04/07 04:19:33;;;;;;;6.03;5.50;;;;;;;;;;2094348;23;21106;-55
2022/04/07 04:20:33;;;;;;;6.30;5.72;;;;;;;;;;2071971;28;20689;-54
2022/04/07 04:21:34;;;;;;;5.97;5.38;;;;;;;;;;2076560;28;20668;-56
2022/04/07 04:22:34;;;;;;;8.00;5.70;;;;;;;;;;2088926;28;20178;-56
2022/04/07 04:23:35;;;;;;;7.20;5.45;;;;;;;;;;2088844;28;20190;-55
2022/04/07 04:24:35;;;;;;;7.70;5.50;;;;;;;;;;2089304;28;20182;-57
2022/04/07 04:25:36;;;;;;;5.50;5.10;;;;;;;;;;2080860;28;20668;-57
2022/04/07 04:26:36;;;;;;;5.85;5.32;;;;;;;;;;2073493;28;20682;-56
2022/04/07 04:27:36;;;;;;;7.88;4.82;;;;;;;;;;2087712;28;20171;-55
2022/04/07 04:28:37;;;;;;;6.40;5.43;;;;;;;;;;2087368;28;20187;-54
2022/04/07 04:29:39;;;;;;;5.38;4.90;;;;;;;;;;2080097;28;20203;-53
2022/04/07 04:30:39;;;;;;;7.07;4.88;;;;;;;;;;2080105;28;20222;-58
2022/04/07 04:31:39;;;;;;;4.88;4.50;;;;;;;;;;2090353;28;20176;-58
2022/04/07 04:32:41;;;;;;;5.13;4.70;;;;;;;;;;2089762;28;20175;-58
2022/04/07 04:33:41;;;;;;;5.28;4.78;;;;;;;;;;2090284;28;20176;-56
2022/04/07 04:34:41;;;;;;;6.07;5.45;;;;;;;;;;2089935;28;20226;-58
2022/04/07 04:35:42;;;;;;;5.53;5.10;;;;;;;;;;2089466;28;20788;-56
2022/04/07 04:36:42;;;;;;;5.45;4.93;;;;;;;;;;2086565;28;20184;-57
2022/04/07 04:37:42;;;;;;;6.13;5.20;;;;;;;;;;2073576;28;20187;-58
2022/04/07 04:38:43;;;;;;;5.22;4.72;;;;;;;;;;2079856;28;20180;-56
2022/04/07 04:39:43;;;;;;;5.00;4.57;;;;;;;;;;2089423;28;20199;-57
2022/04/07 04:40:43;;;;;;;4.93;4.53;;;;;;;;;;2088388;28;20172;-53
2022/04/07 04:41:44;;;;;;;5.18;4.75;;;;;;;;;;2082538;28;20679;-55
2022/04/07 04:42:44;;;;;;;6.90;5.05;;;;;;;;;;2088447;28;20292;-55
2022/04/07 04:43:44;;;;;;;5.18;4.78;;;;;;;;;;2091027;28;20180;-56
2022/04/07 04:44:45;;;;;;;6.75;5.72;;;;;;;;;;2090811;28;20182;-56
2022/04/07 04:45:46;;;;;;;5.90;5.18;;;;;;;;;;2092305;28;20710;-56
2022/04/07 04:46:46;;;;;;;5.72;5.18;;;;;;;;;;2082628;28;20171;-54
2022/04/07 04:47:46;;;;;;;6.20;4.97;;;;;;;;;;2083174;28;20251;-52
2022/04/07 04:48:46;;;;;;;5.28;4.88;;;;;;;;;;2082155;28;20561;-57
2022/04/07 04:49:47;;;;;;;5.95;5.00;;;;;;;;;;2082864;28;20203;-53
2022/04/07 04:50:47;;;;;;;5.57;5.07;;;;;;;;;;2084216;28;20168;-55
2022/04/07 04:51:47;;;;;;;5.40;5.00;;;;;;;;;;2091460;28;20191;-55
2022/04/07 04:52:48;;;;;;;5.13;4.68;;;;;;;;;;2090445;28;20176;-55
2022/04/07 04:53:48;;;;;;;5.78;5.10;;;;;;;;;;2088513;28;20239;-54
2022/04/07 04:54:48;;;;;;;5.88;5.32;;;;;;;;;;2090958;28;20221;-56
2022/04/07 04:55:49;;;;;;;5.90;5.30;;;;;;;;;;2090793;28;20176;-56
2022/04/07 04:56:49;;;;;;;6.57;5.70;;;;;;;;;;2091563;28;20167;-56
2022/04/07 04:57:50;;;;;;;5.18;4.70;;;;;;;;;;2091013;28;20207;-55
2022/04/07 04:58:50;;;;;;;6.80;5.57;;;;;;;;;;2090959;28;20167;-56
2022/04/07 04:59:50;;;;;;;6.05;5.22;;;;;;;;;;2089005;28;20241;-54
2022/04/07 05:00:51;;;;;;;6.40;5.22;;;;;;;;;;2090034;28;20179;-54
2022/04/07 05:01:51;;;;;;;8.07;5.72;;;;;;;;;;2089565;28;20199;-60
2022/04/07 05:02:51;;;;;;;11.93;5.68;;;;;;;;;;2088226;28;20175;-56
2022/04/07 05:03:51;;;;;;;6.18;5.53;;;;;;;;;;2082464;28;20175;-51
2022/04/07 05:04:52;;;;;;;5.97;5.45;;;;;;;;;;2087215;28;20215;-55
2022/04/07 05:05:52;;;;;;;6.15;5.30;;;;;;;;;;2088645;28;20198;-56
2022/04/07 05:06:52;;;;;;;5.53;5.03;;;;;;;;;;2090453;28;20214;-53
2022/04/07 05:07:52;;;;;;;7.50;4.88;;;;;;;;;;2088240;28;20319;-55
2022/04/07 05:08:53;;;;;;;5.18;4.63;;;;;;;;;;2089772;28;20240;-53
2022/04/07 05:09:54;;;;;;;5.15;4.60;;;;;;;;;;2089572;28;20243;-56
2022/04/07 05:10:55;;;;;;;6.38;4.82;;;;;;;;;;2085957;28;20164;-56
2022/04/07 05:11:55;;;;;;;6.30;5.40;;;;;;;;;;2090150;28;20640;-53
2022/04/07 05:12:55;;;;;;;5.57;4.82;;;;;;;;;;2089316;28;20172;-54
2022/04/07 05:13:56;;;;;;;7.03;4.40;;;;;;;;;;2077231;28;20786;-55
2022/04/07 05:14:56;;;;;;;5.35;4.70;;;;;;;;;;2082910;28;20207;-53
2022/04/07 05:15:56;;;;;;;8.02;4.80;;;;;;;;;;2090930;28;20176;-52
2022/04/07 05:16:57;;;;;;;8.75;4.72;;;;;;;;;;2080884;28;20240;-56
2022/04/07 05:17:57;;;;;;;6.55;4.75;;;;;;;;;;2079633;28;20164;-56
2022/04/07 05:18:57;;;;;;;6.50;4.68;;;;;;;;;;2086228;28;20171;-56
2022/04/07 05:19:57;;;;;;;8.95;4.93;;;;;;;;;;2091295;28;20226;-56
2022/04/07 05:20:58;;;;;;;4.68;4.28;;;;;;;;;;2088707;28;20190;-52
2022/04/07 05:21:58;;;;;;;5.25;4.78;;;;;;;;;;2085722;28;20175;-56
2022/04/07 05:22:58;;;;;;;6.15;4.63;;;;;;;;;;2090877;28;20935;-57
2022/04/07 05:23:58;;;;;;;6.00;5.25;;;;;;;;;;2082284;28;20172;-53
2022/04/07 05:24:58;;;;;;;9.65;4.88;;;;;;;;;;2079728;28;20292;-51
2022/04/07 05:25:59;;;;;;;5.75;4.97;;;;;;;;;;2083345;28;20222;-54
2022/04/07 05:26:59;;;;;;;8.25;4.97;;;;;;;;;;2088883;28;20171;-54
2022/04/07 05:27:59;;;;;;;5.32;4.40;;;;;;;;;;2090020;28;20237;-53
2022/04/07 05:28:59;;;;;;;5.10;4.63;;;;;;;;;;2090827;28;20206;-53
2022/04/07 05:30:00;;;;;;;6.40;4.78;;;;;;;;;;2088360;28;20239;-51
2022/04/07 05:31:01;;;;;;;5.72;5.15;;;;;;;;;;2089632;28;20186;-52
2022/04/07 05:32:01;;;;;;;5.80;5.30;;;;;;;;;;2080614;28;20176;-52
2022/04/07 05:33:01;;;;;;;5.82;4.60;;;;;;;;;;2080246;28;20290;-54
2022/04/07 05:34:02;;;;;;;5.05;4.65;;;;;;;;;;2088493;28;20252;-53
2022/04/07 05:35:02;;;;;;;6.15;4.80;;;;;;;;;;2088529;28;20169;-56
2022/04/07 05:36:02;;;;;;;8.18;4.30;;;;;;;;;;2083255;28;20202;-53
2022/04/07 05:37:03;;;;;;;5.20;4.18;;;;;;;;;;2082902;28;20210;-54
2022/04/07 05:38:03;;;;;;;6.15;4.03;;;;;;;;;;2088009;28;20183;-52
2022/04/07 05:39:03;;;;;;;7.53;4.35;;;;;;;;;;2085901;28;20211;-53
2022/04/07 05:40:04;;;;;;;7.78;4.30;;;;;;;;;;2089364;28;20194;-56
2022/04/07 05:41:05;;;;;;;8.10;4.10;;;;;;;;;;2088486;28;20678;-53
2022/04/07 05:42:05;;;;;;;5.40;4.32;;;;;;;;;;2087589;28;20177;-55
2022/04/07 05:43:06;;;;;;;7.13;4.63;;;;;;;;;;2089786;28;20186;-55
2022/04/07 05:44:06;;;;;;;5.90;3.83;;;;;;;;;;2085393;28;20675;-52
2022/04/07 05:45:07;;;;;;;5.47;3.75;;;;;;;;;;2088073;28;20179;-54
2022/04/07 05:46:08;;;;;;;7.22;3.63;;;;;;;;;;2087257;28;20174;-55
2022/04/07 05:47:08;;;;;;;5.90;3.60;;;;;;;;;;2085368;28;20180;-56
2022/04/07 05:48:09;;;;;;;8.20;3.45;;;;;;;;;;2086021;28;20302;-56
2022/04/07 05:49:10;;;;;;;6.47;3.65;;;;;;;;;;2090194;28;20234;-54
2022/04/07 05:50:10;;;;;;;5.35;3.35;;;;;;;;;;2085454;28;20198;-57
2022/04/07 05:51:12;;;;;;;6.90;3.30;;;;;;;;;;2076638;28;20229;-54
2022/04/07 05:52:12;;;;;;;4.05;3.15;;;;;;;;;;2071055;28;20231;-56
2022/04/07 05:53:12;;;;;;;5.60;3.28;;;;;;;;;;2079781;28;20215;-58
2022/04/07 05:54:16;;;;;;;3.22;3.03;;;;;;;;;;2090319;28;20186;-54
2022/04/07 05:55:17;;;;;;;5.70;3.50;;;;;;;;;;2090595;28;20167;-54
2022/04/07 05:56:17;;;;;;;5.30;2.58;;;;;;;;;;2089652;28;20647;-55
2022/04/07 05:57:17;;;;;;;5.65;3.13;;;;;;;;;;2091210;28;20176;-52
2022/04/07 05:58:18;;;;;;;4.68;3.10;;;;;;;;;;2080354;28;20168;-55
2022/04/07 05:59:18;;;;;;;5.05;2.80;;;;;;;;;;2081641;28;20180;-56
2022/04/07 06:00:19;;;;;;;5.40;3.08;;;;;;;;;;2091008;28;20221;-56
2022/04/07 06:01:19;;;;;;;5.32;2.97;;;;;;;;;;2089833;28;20233;-55
2022/04/07 06:02:19;;;;;;;5.50;2.97;;;;;;;;;;2089597;28;20258;-55